createdAt,value
2023-01-30T00:01:17.797Z,101731.75
2023-01-30T00:03:44.608Z,101733.91
2023-01-30T00:06:11.458Z,101739.00
2023-01-30T00:08:38.868Z,101740.78
2023-01-30T00:11:06.246Z,101740.09
2023-01-30T00:13:33.472Z,101731.28
2023-01-30T00:16:00.479Z,101727.66
2023-01-30T00:18:27.283Z,101728.28
2023-01-30T00:21:03.390Z,101731.03
2023-01-30T00:23:30.741Z,101719.69
2023-01-30T00:25:57.568Z,101723.25
2023-01-30T00:28:24.578Z,101725.19
2023-01-30T00:30:52.819Z,101722.31
2023-01-30T00:33:20.297Z,101729.22
2023-01-30T00:35:47.918Z,101723.03
2023-01-30T00:38:15.003Z,101714.06
2023-01-30T00:40:41.753Z,101711.44
2023-01-30T00:43:19.180Z,101728.75
2023-01-30T00:45:57.157Z,101713.84
2023-01-30T00:48:24.033Z,101714.69
2023-01-30T00:50:50.734Z,101725.78
2023-01-30T00:53:17.674Z,101721.34
2023-01-30T00:55:45.193Z,101712.66
2023-01-30T00:58:12.552Z,101717.91
2023-01-30T01:00:39.752Z,101712.53
2023-01-30T01:03:06.525Z,101713.38
2023-01-30T01:05:33.282Z,101709.91
2023-01-30T01:07:59.983Z,101695.81
2023-01-30T01:10:27.101Z,101701.06
2023-01-30T01:12:53.748Z,101690.56
2023-01-30T01:15:21.603Z,101688.75
2023-01-30T01:17:48.859Z,101688.41
2023-01-30T01:20:15.906Z,101685.66
2023-01-30T01:22:42.926Z,101685.44
2023-01-30T01:25:10.914Z,101686.00
2023-01-30T01:27:38.005Z,101681.44
2023-01-30T01:30:05.505Z,101685.53
2023-01-30T01:32:32.280Z,101684.31
2023-01-30T01:34:58.996Z,101687.63
2023-01-30T01:37:25.975Z,101680.38
2023-01-30T01:40:02.149Z,101665.28
2023-01-30T01:42:32.313Z,101651.09
2023-01-30T01:45:08.264Z,101655.41
2023-01-30T01:47:35.466Z,101643.91
2023-01-30T01:50:02.814Z,101634.00
2023-01-30T01:52:29.559Z,101641.63
2023-01-30T01:55:00.105Z,101645.09
2023-01-30T01:57:34.059Z,101647.59
2023-01-30T02:00:11.790Z,101639.09
2023-01-30T02:02:39.876Z,101659.31
2023-01-30T02:05:07.185Z,101655.13
2023-01-30T02:07:44.153Z,101653.47
2023-01-30T02:10:13.636Z,101652.03
2023-01-30T02:12:41.237Z,101651.22
2023-01-30T02:15:08.087Z,101646.91
2023-01-30T02:17:34.954Z,101645.13
2023-01-30T02:20:11.606Z,101646.69
2023-01-30T02:22:51.009Z,101643.22
2023-01-30T02:25:18.213Z,101643.91
2023-01-30T02:27:58.589Z,101649.88
2023-01-30T02:30:34.609Z,101648.09
2023-01-30T02:33:01.590Z,101644.38
2023-01-30T02:35:28.570Z,101648.66
2023-01-30T02:38:04.423Z,101644.00
2023-01-30T02:40:40.423Z,101652.47
2023-01-30T02:43:10.764Z,101647.91
2023-01-30T02:45:47.612Z,101646.00
2023-01-30T02:48:17.449Z,101657.06
2023-01-30T02:50:47.688Z,101653.50
2023-01-30T02:53:14.595Z,101659.47
2023-01-30T02:55:42.380Z,101663.88
2023-01-30T02:58:09.527Z,101669.16
2023-01-30T03:00:36.439Z,101674.41
2023-01-30T03:03:12.354Z,101677.97
2023-01-30T03:05:46.479Z,101676.31
2023-01-30T03:08:22.908Z,101669.38
2023-01-30T03:10:53.302Z,101682.50
2023-01-30T03:13:26.705Z,101674.78
2023-01-30T03:15:58.361Z,101671.44
2023-01-30T03:18:25.018Z,101670.75
2023-01-30T03:20:51.726Z,101676.13
2023-01-30T03:23:18.409Z,101673.59
2023-01-30T03:25:46.271Z,101691.03
2023-01-30T03:28:14.963Z,101699.03
2023-01-30T03:30:41.683Z,101699.03
2023-01-30T03:33:08.477Z,101694.88
2023-01-30T03:35:35.285Z,101686.28
2023-01-30T03:38:02.294Z,101686.66
2023-01-30T03:40:29.291Z,101686.78
2023-01-30T03:42:55.984Z,101686.53
2023-01-30T03:45:22.603Z,101689.16
2023-01-30T03:47:49.374Z,101692.47
2023-01-30T03:50:16.383Z,101691.53
2023-01-30T03:52:43.116Z,101684.50
2023-01-30T03:55:10.608Z,101691.31
2023-01-30T03:57:37.286Z,101689.47
2023-01-30T04:00:05.060Z,101688.66
2023-01-30T04:02:34.667Z,101686.75
2023-01-30T04:05:01.364Z,101691.16
2023-01-30T04:07:29.855Z,101688.53
2023-01-30T04:09:56.572Z,101689.25
2023-01-30T04:12:23.423Z,101689.13
2023-01-30T04:14:50.148Z,101692.56
2023-01-30T04:17:16.764Z,101697.81
2023-01-30T04:19:43.449Z,101698.81
2023-01-30T04:22:10.268Z,101697.81
2023-01-30T04:24:37.010Z,101697.97
2023-01-30T04:27:03.737Z,101689.13
2023-01-30T04:29:30.675Z,101694.25
2023-01-30T04:31:57.309Z,101693.28
2023-01-30T04:34:24.023Z,101701.06
2023-01-30T04:36:50.782Z,101686.97
2023-01-30T04:39:17.509Z,101704.25
2023-01-30T04:41:44.312Z,101712.88
2023-01-30T04:44:13.112Z,101710.09
2023-01-30T04:46:39.769Z,101719.53
2023-01-30T04:49:06.568Z,101729.09
2023-01-30T04:51:33.299Z,101730.88
2023-01-30T04:53:59.981Z,101730.72
2023-01-30T04:56:26.805Z,101742.91
2023-01-30T04:58:53.508Z,101752.22
2023-01-30T05:01:21.531Z,101757.34
2023-01-30T05:03:49.984Z,101757.47
2023-01-30T05:06:16.717Z,101756.66
2023-01-30T05:08:45.954Z,101759.41
2023-01-30T05:11:13.449Z,101762.03
2023-01-30T05:13:40.302Z,101757.72
2023-01-30T05:16:07.178Z,101751.75
2023-01-30T05:18:34.462Z,101753.69
2023-01-30T05:21:10.365Z,101758.94
2023-01-30T05:23:37.133Z,101752.97
2023-01-30T05:26:04.324Z,101755.75
2023-01-30T05:28:31.079Z,101759.44
2023-01-30T05:31:01.898Z,101760.38
2023-01-30T05:33:28.824Z,101763.00
2023-01-30T05:35:55.539Z,101767.31
2023-01-30T05:38:23.303Z,101775.94
2023-01-30T05:41:00.782Z,101780.09
2023-01-30T05:43:27.739Z,101780.81
2023-01-30T05:45:55.193Z,101782.47
2023-01-30T05:48:22.238Z,101782.22
2023-01-30T05:50:52.404Z,101786.38
2023-01-30T05:53:19.775Z,101788.06
2023-01-30T05:55:46.853Z,101784.34
2023-01-30T05:58:13.507Z,101774.53
2023-01-30T06:00:40.129Z,101784.09
2023-01-30T06:03:06.927Z,101787.44
2023-01-30T06:05:33.577Z,101795.06
2023-01-30T06:08:00.322Z,101794.84
2023-01-30T06:10:26.964Z,101797.31
2023-01-30T06:12:53.671Z,101807.63
2023-01-30T06:15:20.610Z,101809.50
2023-01-30T06:17:47.439Z,101804.25
2023-01-30T06:20:14.192Z,101809.41
2023-01-30T06:22:40.897Z,101821.13
2023-01-30T06:25:07.907Z,101808.00
2023-01-30T06:27:35.098Z,101807.25
2023-01-30T06:30:01.965Z,101810.28
2023-01-30T06:32:29.063Z,101821.84
2023-01-30T06:34:55.833Z,101830.94
2023-01-30T06:37:22.915Z,101833.09
2023-01-30T06:39:49.760Z,101835.03
2023-01-30T06:42:16.533Z,101841.25
2023-01-30T06:44:43.734Z,101845.88
2023-01-30T06:47:10.476Z,101837.31
2023-01-30T06:49:37.148Z,101841.16
2023-01-30T06:52:04.121Z,101849.25
2023-01-30T06:54:30.963Z,101869.44
2023-01-30T06:56:57.836Z,101861.81
2023-01-30T06:59:24.533Z,101867.16
2023-01-30T07:01:51.505Z,101870.75
2023-01-30T07:04:18.295Z,101879.72
2023-01-30T07:06:46.284Z,101886.03
2023-01-30T07:09:13.036Z,101881.88
2023-01-30T07:11:39.939Z,101903.13
2023-01-30T07:14:07.382Z,101901.56
2023-01-30T07:16:34.317Z,101897.41
2023-01-30T07:19:01.222Z,101910.75
2023-01-30T07:21:28.641Z,101914.47
2023-01-30T07:23:56.264Z,101925.19
2023-01-30T07:26:23.122Z,101929.75
2023-01-30T07:28:50.029Z,101940.34
2023-01-30T07:31:16.838Z,101943.34
2023-01-30T07:33:43.969Z,101958.59
2023-01-30T07:36:10.983Z,101956.19
2023-01-30T07:38:37.774Z,101961.78
2023-01-30T07:41:04.751Z,101970.00
2023-01-30T07:43:31.905Z,101966.53
2023-01-30T07:46:00.627Z,101970.94
2023-01-30T07:48:27.487Z,101971.78
2023-01-30T07:50:56.780Z,101976.19
2023-01-30T07:53:23.657Z,101983.25
2023-01-30T07:55:55.390Z,101978.81
2023-01-30T07:58:22.567Z,101980.59
2023-01-30T08:00:49.440Z,101989.00
2023-01-30T08:03:17.011Z,101992.59
2023-01-30T08:05:46.931Z,101988.16
2023-01-30T08:08:17.203Z,101989.72
2023-01-30T08:10:43.976Z,101978.75
2023-01-30T08:13:10.790Z,101972.09
2023-01-30T08:15:37.963Z,101960.41
2023-01-30T08:18:04.955Z,101956.59
2023-01-30T08:20:32.023Z,101949.44
2023-01-30T08:22:59.578Z,101959.97
2023-01-30T08:25:26.532Z,101973.69
2023-01-30T08:27:53.666Z,101969.13
2023-01-30T08:30:21.696Z,101970.69
2023-01-30T08:32:48.919Z,101987.19
2023-01-30T08:35:16.010Z,101994.81
2023-01-30T08:37:42.972Z,101987.53
2023-01-30T08:40:10.466Z,101994.47
2023-01-30T08:42:37.318Z,101993.41
2023-01-30T08:45:04.569Z,101989.81
2023-01-30T08:47:31.790Z,102007.16
2023-01-30T08:49:58.891Z,102003.69
2023-01-30T08:52:26.095Z,102005.47
2023-01-30T08:54:53.189Z,102004.53
2023-01-30T08:57:20.636Z,102023.63
2023-01-30T08:59:47.910Z,102024.00
2023-01-30T09:02:14.847Z,102019.31
2023-01-30T09:04:41.989Z,102021.75
2023-01-30T09:07:08.933Z,102027.84
2023-01-30T09:09:36.353Z,102037.50
2023-01-30T09:12:03.340Z,102043.34
2023-01-30T09:14:30.656Z,102047.41
2023-01-30T09:16:57.569Z,102050.88
2023-01-30T09:19:26.059Z,102055.09
2023-01-30T09:21:53.913Z,102048.63
2023-01-30T09:24:22.235Z,102039.91
2023-01-30T09:26:49.053Z,102042.19
2023-01-30T09:29:16.070Z,102028.94
2023-01-30T09:31:42.939Z,102031.31
2023-01-30T09:34:09.969Z,102033.72
2023-01-30T09:36:36.890Z,102042.56
2023-01-30T09:39:03.773Z,102041.97
2023-01-30T09:41:32.040Z,102048.03
2023-01-30T09:44:07.997Z,102039.34
2023-01-30T09:46:35.315Z,102043.84
2023-01-30T09:49:03.668Z,102043.84
2023-01-30T09:51:32.396Z,102043.28
2023-01-30T09:54:02.628Z,102051.00
2023-01-30T09:56:29.973Z,102065.84
2023-01-30T09:58:57.824Z,102068.34
2023-01-30T10:01:30.727Z,102074.31
2023-01-30T10:04:03.626Z,102065.47
2023-01-30T10:06:31.958Z,102070.75
2023-01-30T10:09:02.159Z,102071.56
2023-01-30T10:11:36.618Z,102076.38
2023-01-30T10:14:07.024Z,102080.44
2023-01-30T10:16:36.993Z,102073.13
2023-01-30T10:19:07.052Z,102075.66
2023-01-30T10:21:37.273Z,102084.38
2023-01-30T10:24:07.649Z,102093.00
2023-01-30T10:26:34.929Z,102096.00
2023-01-30T10:29:07.636Z,102099.44
2023-01-30T10:31:41.384Z,102087.53
2023-01-30T10:34:13.758Z,102089.78
2023-01-30T10:36:43.607Z,102085.25
2023-01-30T10:39:13.754Z,102080.47
2023-01-30T10:41:45.976Z,102088.22
2023-01-30T10:44:14.115Z,102088.22
2023-01-30T10:46:47.370Z,102094.22
2023-01-30T10:49:18.849Z,102094.00
2023-01-30T10:51:47.127Z,102088.59
2023-01-30T10:54:20.046Z,102081.19
2023-01-30T10:56:50.435Z,102089.81
2023-01-30T10:59:20.367Z,102094.47
2023-01-30T11:01:54.232Z,102099.84
2023-01-30T11:04:26.454Z,102119.22
2023-01-30T11:06:54.106Z,102114.91
2023-01-30T11:09:22.683Z,102106.81
2023-01-30T11:11:50.949Z,102096.97
2023-01-30T11:14:17.751Z,102101.03
2023-01-30T11:16:47.800Z,102096.50
2023-01-30T11:19:21.634Z,102104.28
2023-01-30T11:21:52.185Z,102103.06
2023-01-30T11:24:20.856Z,102097.09
2023-01-30T11:26:48.662Z,102102.22
2023-01-30T11:29:17.043Z,102108.91
2023-01-30T11:31:49.961Z,102100.91
2023-01-30T11:34:17.968Z,102105.94
2023-01-30T11:36:47.401Z,102117.28
2023-01-30T11:39:16.173Z,102115.38
2023-01-30T11:41:44.034Z,102111.34
2023-01-30T11:44:11.803Z,102106.91
2023-01-30T11:46:39.711Z,102109.53
2023-01-30T11:49:47.142Z,102106.75
2023-01-30T11:51:56.395Z,102106.91
2023-01-30T11:54:29.168Z,102116.44
2023-01-30T11:57:00.683Z,102108.69
2023-01-30T11:59:30.876Z,102109.28
2023-01-30T12:02:00.807Z,102094.91
2023-01-30T12:04:28.692Z,102088.22
2023-01-30T12:06:58.678Z,102094.53
2023-01-30T12:09:30.551Z,102093.94
2023-01-30T12:11:57.595Z,102090.78
2023-01-30T12:14:33.608Z,102092.44
2023-01-30T12:17:03.712Z,102085.41
2023-01-30T12:19:36.388Z,102082.19
2023-01-30T12:22:06.367Z,102100.25
2023-01-30T12:24:36.328Z,102112.97
2023-01-30T12:27:06.238Z,102112.84
2023-01-30T12:29:36.235Z,102122.44
2023-01-30T12:32:06.616Z,102128.28
2023-01-30T12:34:33.750Z,102130.91
2023-01-30T12:37:03.598Z,102127.53
2023-01-30T12:39:33.509Z,102117.28
2023-01-30T12:42:09.425Z,102110.44
2023-01-30T12:44:39.634Z,102105.31
2023-01-30T12:47:09.526Z,102105.69
2023-01-30T12:49:39.604Z,102103.28
2023-01-30T12:52:09.533Z,102089.53
2023-01-30T12:54:36.778Z,102112.03
2023-01-30T12:57:06.708Z,102112.38
2023-01-30T12:59:33.876Z,102120.84
2023-01-30T13:02:01.218Z,102115.09
2023-01-30T13:04:31.297Z,102116.28
2023-01-30T13:07:01.678Z,102110.50
2023-01-30T13:09:37.987Z,102119.59
2023-01-30T13:12:05.602Z,102118.59
2023-01-30T13:14:35.573Z,102111.50
2023-01-30T13:17:08.928Z,102098.53
2023-01-30T13:19:41.210Z,102088.31
2023-01-30T13:22:11.431Z,102093.34
2023-01-30T13:24:39.671Z,102091.28
2023-01-30T13:27:10.071Z,102092.22
2023-01-30T13:29:38.888Z,102085.66
2023-01-30T13:32:10.229Z,102080.53
2023-01-30T13:34:39.574Z,102079.25
2023-01-30T13:37:09.175Z,102080.81
2023-01-30T13:39:42.266Z,102091.50
2023-01-30T13:42:14.573Z,102108.41
2023-01-30T13:44:44.004Z,102109.50
2023-01-30T13:47:19.238Z,102109.72
2023-01-30T13:49:49.119Z,102112.63
2023-01-30T13:52:18.609Z,102093.63
2023-01-30T13:54:47.671Z,102095.53
2023-01-30T13:57:17.912Z,102100.22
2023-01-30T13:59:47.804Z,102096.28
2023-01-30T14:02:17.802Z,102103.44
2023-01-30T14:04:46.877Z,102102.03
2023-01-30T14:07:15.028Z,102101.09
2023-01-30T14:09:44.927Z,102100.13
2023-01-30T14:12:14.821Z,102090.88
2023-01-30T14:14:43.640Z,102091.31
2023-01-30T14:17:13.051Z,102093.84
2023-01-30T14:19:40.793Z,102084.72
2023-01-30T14:22:11.496Z,102082.09
2023-01-30T14:24:39.259Z,102081.97
2023-01-30T14:27:22.891Z,102089.03
2023-01-30T14:29:50.508Z,102081.84
2023-01-30T14:32:20.544Z,102099.34
2023-01-30T14:34:49.392Z,102116.94
2023-01-30T14:37:19.704Z,102125.69
2023-01-30T14:39:52.255Z,102124.13
2023-01-30T14:42:20.903Z,102128.44
2023-01-30T14:44:50.848Z,102130.81
2023-01-30T14:47:33.953Z,102137.88
2023-01-30T14:50:18.724Z,102131.66
2023-01-30T14:52:47.346Z,102129.59
2023-01-30T14:55:17.552Z,102134.16
2023-01-30T14:57:47.699Z,102136.91
2023-01-30T15:00:18.853Z,102142.06
2023-01-30T15:02:49.851Z,102141.34
2023-01-30T15:05:20.349Z,102136.34
2023-01-30T15:07:50.471Z,102146.31
2023-01-30T15:10:19.045Z,102135.53
2023-01-30T15:12:49.328Z,102139.13
2023-01-30T15:15:19.894Z,102139.84
2023-01-30T15:17:58.247Z,102139.94
2023-01-30T15:20:34.069Z,102139.94
2023-01-30T15:23:04.874Z,102145.00
2023-01-30T15:25:40.839Z,102157.91
2023-01-30T15:28:11.015Z,102154.44
2023-01-30T15:30:43.173Z,102152.75
2023-01-30T15:33:14.072Z,102164.13
2023-01-30T15:35:43.756Z,102149.53
2023-01-30T15:38:14.333Z,102159.50
2023-01-30T15:40:42.143Z,102165.81
2023-01-30T15:43:13.931Z,102174.81
2023-01-30T15:45:42.540Z,102187.38
2023-01-30T15:48:12.545Z,102197.91
2023-01-30T15:50:39.641Z,102203.44
2023-01-30T15:53:13.650Z,102205.22
2023-01-30T15:55:42.353Z,102208.81
2023-01-30T15:58:14.309Z,102209.66
2023-01-30T16:00:45.077Z,102204.53
2023-01-30T16:03:14.949Z,102206.31
2023-01-30T16:05:45.070Z,102209.31
2023-01-30T16:08:19.127Z,102219.97
2023-01-30T16:10:47.632Z,102229.75
2023-01-30T16:13:14.825Z,102230.84
2023-01-30T16:15:46.866Z,102236.47
2023-01-30T16:18:17.227Z,102226.31
2023-01-30T16:23:41.017Z,102233.47
2023-01-30T16:26:09.221Z,102230.34
2023-01-30T16:28:36.778Z,102238.50
2023-01-30T16:31:05.575Z,102242.19
2023-01-30T16:33:37.125Z,102247.81
2023-01-30T16:36:04.887Z,102244.59
2023-01-30T16:38:32.130Z,102244.94
2023-01-30T16:40:59.797Z,102250.66
2023-01-30T16:43:27.873Z,102256.03
2023-01-30T16:45:55.285Z,102270.38
2023-01-30T16:48:31.016Z,102267.13
2023-01-30T16:50:59.663Z,102270.84
2023-01-30T16:53:29.874Z,102277.88
2023-01-30T16:55:59.822Z,102273.72
2023-01-30T16:58:32.755Z,102276.66
2023-01-30T17:01:01.805Z,102281.91
2023-01-30T17:03:34.385Z,102275.94
2023-01-30T17:06:09.620Z,102274.25
2023-01-30T17:08:40.913Z,102278.69
2023-01-30T17:11:08.637Z,102284.03
2023-01-30T17:13:36.413Z,102287.72
2023-01-30T17:16:06.674Z,102283.66
2023-01-30T17:18:33.573Z,102288.78
2023-01-30T17:21:01.205Z,102296.66
2023-01-30T17:23:28.190Z,102296.06
2023-01-30T17:25:55.190Z,102297.13
2023-01-30T17:28:24.777Z,102301.66
2023-01-30T17:30:51.961Z,102305.25
2023-01-30T17:33:19.152Z,102301.06
2023-01-30T17:35:46.749Z,102303.78
2023-01-30T17:38:13.910Z,102301.25
2023-01-30T17:40:41.059Z,102293.72
2023-01-30T17:43:09.859Z,102284.28
2023-01-30T17:45:36.892Z,102294.06
2023-01-30T17:48:03.861Z,102289.97
2023-01-30T17:50:30.878Z,102300.59
2023-01-30T17:52:58.110Z,102306.00
2023-01-30T17:55:25.351Z,102305.16
2023-01-30T17:57:52.432Z,102307.97
2023-01-30T18:00:20.992Z,102312.28
2023-01-30T18:02:48.579Z,102314.91
2023-01-30T18:05:15.845Z,102315.84
2023-01-30T18:07:43.155Z,102309.91
2023-01-30T18:10:13.895Z,102317.78
2023-01-30T18:12:40.896Z,102312.84
2023-01-30T18:15:08.507Z,102328.72
2023-01-30T18:17:39.484Z,102332.41
2023-01-30T18:20:06.848Z,102327.28
2023-01-30T18:22:33.879Z,102336.19
2023-01-30T18:25:00.914Z,102332.97
2023-01-30T18:27:27.991Z,102335.59
2023-01-30T18:29:54.960Z,102340.84
2023-01-30T18:32:21.891Z,102337.38
2023-01-30T18:34:48.896Z,102336.63
2023-01-30T18:37:16.002Z,102327.91
2023-01-30T18:39:43.063Z,102329.59
2023-01-30T18:42:10.089Z,102329.81
2023-01-30T18:44:37.152Z,102329.06
2023-01-30T18:47:04.219Z,102335.41
2023-01-30T18:49:31.192Z,102339.91
2023-01-30T18:51:58.178Z,102341.81
2023-01-30T18:54:25.268Z,102343.69
2023-01-30T18:56:52.260Z,102350.84
2023-01-30T18:59:19.175Z,102351.91
2023-01-30T19:01:47.109Z,102338.78
2023-01-30T19:04:14.180Z,102339.72
2023-01-30T19:06:43.759Z,102338.97
2023-01-30T19:09:13.386Z,102343.28
2023-01-30T19:11:43.402Z,102341.50
2023-01-30T19:14:10.675Z,102351.16
2023-01-30T19:16:38.817Z,102351.28
2023-01-30T19:19:06.378Z,102346.13
2023-01-30T19:21:33.887Z,102350.66
2023-01-30T19:24:03.611Z,102350.88
2023-01-30T19:26:31.148Z,102342.47
2023-01-30T19:28:58.501Z,102334.69
2023-01-30T19:31:26.104Z,102333.13
2023-01-30T19:33:54.731Z,102342.91
2023-01-30T19:36:22.341Z,102347.53
2023-01-30T19:38:51.655Z,102345.94
2023-01-30T19:41:20.267Z,102360.97
2023-01-30T19:43:47.930Z,102368.84
2023-01-30T19:46:15.800Z,102362.00
2023-01-30T19:48:43.983Z,102356.00
2023-01-30T19:51:13.841Z,102359.59
2023-01-30T19:53:41.639Z,102364.00
2023-01-30T19:56:09.324Z,102361.38
2023-01-30T19:58:37.203Z,102356.13
2023-01-30T20:01:04.941Z,102358.94
2023-01-30T20:03:32.428Z,102362.53
2023-01-30T20:06:02.492Z,102367.88
2023-01-30T20:08:32.623Z,102364.31
2023-01-30T20:11:01.711Z,102361.69
2023-01-30T20:13:29.210Z,102362.72
2023-01-30T20:15:58.081Z,102369.75
2023-01-30T20:18:25.032Z,102361.03
2023-01-30T20:20:52.046Z,102360.22
2023-01-30T20:23:19.161Z,102356.13
2023-01-30T20:25:46.853Z,102354.56
2023-01-30T20:28:14.139Z,102356.34
2023-01-30T20:30:41.827Z,102357.38
2023-01-30T20:33:09.132Z,102356.75
2023-01-30T20:35:36.070Z,102357.81
2023-01-30T20:38:03.188Z,102357.06
2023-01-30T20:40:30.132Z,102351.06
2023-01-30T20:42:58.140Z,102356.44
2023-01-30T20:45:25.098Z,102361.16
2023-01-30T20:47:51.986Z,102350.75
2023-01-30T20:50:20.526Z,102350.84
2023-01-30T20:52:49.000Z,102350.13
2023-01-30T20:55:16.399Z,102347.59
2023-01-30T20:57:44.080Z,102343.38
2023-01-30T21:00:12.380Z,102346.13
2023-01-30T21:02:39.402Z,102334.16
2023-01-30T21:05:08.266Z,102329.84
2023-01-30T21:07:38.261Z,102343.16
2023-01-30T21:10:05.556Z,102340.75
2023-01-30T21:12:32.593Z,102337.38
2023-01-30T21:14:59.713Z,102334.97
2023-01-30T21:17:28.081Z,102333.25
2023-01-30T21:19:54.951Z,102328.13
2023-01-30T21:22:21.958Z,102335.34
2023-01-30T21:24:48.994Z,102336.28
2023-01-30T21:27:16.103Z,102333.88
2023-01-30T21:29:43.008Z,102339.19
2023-01-30T21:32:09.939Z,102341.09
2023-01-30T21:34:37.052Z,102343.78
2023-01-30T21:37:07.031Z,102348.19
2023-01-30T21:39:38.125Z,102342.97
2023-01-30T21:42:08.555Z,102346.50
2023-01-30T21:44:38.188Z,102338.00
2023-01-30T21:47:06.025Z,102323.44
2023-01-30T21:49:33.589Z,102332.22
2023-01-30T21:52:00.755Z,102327.06
2023-01-30T21:54:27.677Z,102323.53
2023-01-30T21:56:54.873Z,102323.63
2023-01-30T21:59:21.805Z,102332.44
2023-01-30T22:01:48.902Z,102321.97
2023-01-30T22:04:16.215Z,102328.31
2023-01-30T22:06:43.719Z,102339.09
2023-01-30T22:09:13.242Z,102327.03
2023-01-30T22:11:40.192Z,102341.84
2023-01-30T22:14:07.125Z,102333.31
2023-01-30T22:16:34.862Z,102340.44
2023-01-30T22:19:03.141Z,102336.22
2023-01-30T22:21:32.554Z,102338.00
2023-01-30T22:23:59.472Z,102345.88
2023-01-30T22:26:27.015Z,102344.09
2023-01-30T22:28:56.369Z,102346.81
2023-01-30T22:31:23.655Z,102350.25
2023-01-30T22:33:52.145Z,102345.88
2023-01-30T22:36:19.162Z,102353.00
2023-01-30T22:38:46.917Z,102346.06
2023-01-30T22:41:16.004Z,102346.06
2023-01-30T22:43:45.402Z,102347.00
2023-01-30T22:46:12.987Z,102347.84
2023-01-30T22:48:40.800Z,102354.78
2023-01-30T22:51:09.221Z,102356.47
2023-01-30T22:53:37.410Z,102346.00
2023-01-30T22:56:05.870Z,102354.03
2023-01-30T22:58:32.843Z,102335.50
2023-01-30T23:01:02.751Z,102322.50
2023-01-30T23:03:29.570Z,102339.16
2023-01-30T23:05:58.895Z,102336.75
2023-01-30T23:08:30.728Z,102332.72
2023-01-30T23:10:58.658Z,102342.44
2023-01-30T23:13:29.982Z,102324.19
2023-01-30T23:15:59.930Z,102307.75
2023-01-30T23:18:30.161Z,102315.63
2023-01-30T23:20:57.643Z,102323.47
2023-01-30T23:23:24.470Z,102315.53
2023-01-30T23:25:51.764Z,102298.84
2023-01-30T23:28:18.982Z,102297.06
2023-01-30T23:30:46.027Z,102306.81
2023-01-30T23:33:12.912Z,102304.28
2023-01-30T23:35:40.240Z,102297.56
2023-01-30T23:38:11.487Z,102289.81
2023-01-30T23:40:38.753Z,102295.97
2023-01-30T23:43:05.700Z,102282.97
2023-01-30T23:45:32.663Z,102275.09
2023-01-30T23:47:59.821Z,102261.06
2023-01-30T23:50:26.808Z,102261.00
2023-01-30T23:52:53.770Z,102257.63
2023-01-30T23:55:21.167Z,102250.72
2023-01-30T23:57:48.451Z,102250.72
